Time;durP1;ratioP1;P1;durP2;ratioP2;P2;SDS_P1;SDS_P2;PMS_P1;PMS_P2;Temp;Humidity;BMP_temperature;BMP_pressure;BME280_temperature;BME280_humidity;BME280_pressure;Samples;Min_cycle;Max_cycle;Signal;HPM_P1;HPM_P2
2024/01/13 00:01:44;;;;;;;23.23;10.80;;;;;;;0.71;100.00;101725.50;5032692;28;20231;-73
2024/01/13 00:04:12;;;;;;;25.23;11.07;;;;;;;0.72;100.00;101724.47;5035038;28;20324;-73
2024/01/13 00:06:39;;;;;;;24.73;10.10;;;;;;;0.71;100.00;101725.50;5033933;28;20211;-74
2024/01/13 00:09:05;;;;;;;20.83;10.40;;;;;;;0.71;100.00;101728.91;5032647;28;20198;-74
2024/01/13 00:11:31;;;;;;;21.97;9.93;;;;;;;0.73;100.00;101726.09;5032684;28;20732;-74
2024/01/13 00:13:58;;;;;;;19.27;9.27;;;;;;;0.73;100.00;101721.66;5028811;28;20838;-73
2024/01/13 00:16:24;;;;;;;20.83;10.83;;;;;;;0.73;100.00;101723.50;5032340;28;20210;-73
2024/01/13 00:18:50;;;;;;;20.30;9.93;;;;;;;0.73;100.00;101719.06;5034870;28;20218;-74
2024/01/13 00:21:18;;;;;;;21.70;9.87;;;;;;;0.74;100.00;101725.84;5030220;28;20713;-74
2024/01/13 00:23:44;;;;;;;18.83;10.70;;;;;;;0.74;100.00;101714.66;5035602;28;20209;-73
2024/01/13 00:26:11;;;;;;;20.53;10.77;;;;;;;0.75;100.00;101705.84;5032847;28;20204;-74
2024/01/13 00:28:37;;;;;;;20.13;10.33;;;;;;;0.75;100.00;101706.63;5031773;28;20654;-73
2024/01/13 00:31:04;;;;;;;23.60;9.93;;;;;;;0.74;100.00;101707.63;5033066;28;20582;-73
2024/01/13 00:33:30;;;;;;;17.47;10.03;;;;;;;0.74;100.00;101701.66;5035832;28;20249;-73
2024/01/13 00:35:57;;;;;;;21.40;10.13;;;;;;;0.75;100.00;101698.03;5033303;28;20270;-74
2024/01/13 00:38:24;;;;;;;22.07;11.13;;;;;;;0.75;100.00;101692.84;5034938;28;20215;-72
2024/01/13 00:40:51;;;;;;;20.07;10.27;;;;;;;0.76;100.00;101691.81;5035036;28;20219;-73
2024/01/13 00:43:17;;;;;;;21.63;10.53;;;;;;;0.76;100.00;101689.22;5035310;28;20215;-73
2024/01/13 00:45:44;;;;;;;21.30;9.30;;;;;;;0.75;100.00;101683.25;5035284;28;20231;-74
2024/01/13 00:48:10;;;;;;;21.30;9.77;;;;;;;0.76;100.00;101676.22;5029891;28;20196;-72
2024/01/13 00:50:36;;;;;;;17.33;9.70;;;;;;;0.78;100.00;101684.59;5034405;28;20235;-73
2024/01/13 00:53:03;;;;;;;20.73;9.27;;;;;;;0.78;100.00;101687.19;5029697;28;22079;-74
2024/01/13 00:55:30;;;;;;;19.97;9.83;;;;;;;0.78;100.00;101685.34;5030966;28;20543;-73
2024/01/13 00:57:57;;;;;;;21.97;9.50;;;;;;;0.79;100.00;101696.56;5033659;28;20230;-73
2024/01/13 01:00:23;;;;;;;24.00;9.90;;;;;;;0.79;100.00;101691.34;5035484;28;20530;-73
2024/01/13 01:02:49;;;;;;;23.43;10.10;;;;;;;0.78;100.00;101685.34;5033278;28;20210;-73
2024/01/13 01:05:15;;;;;;;17.20;8.87;;;;;;;0.78;100.00;101682.75;5033185;28;20242;-73
2024/01/13 01:07:42;;;;;;;19.57;8.87;;;;;;;0.78;100.00;101684.59;5031453;28;20207;-74
2024/01/13 01:10:09;;;;;;;19.83;9.23;;;;;;;0.81;100.00;101689.31;5034763;28;20217;-74
2024/01/13 01:12:36;;;;;;;21.17;10.07;;;;;;;0.81;100.00;101681.50;5038852;28;20669;-74
2024/01/13 01:15:03;;;;;;;19.77;9.10;;;;;;;0.81;100.00;101674.50;5032052;28;20214;-73
2024/01/13 01:17:29;;;;;;;15.00;8.73;;;;;;;0.81;100.00;101674.50;5036272;28;20219;-73
2024/01/13 01:19:56;;;;;;;18.87;8.20;;;;;;;0.81;100.00;101673.69;5033946;28;20195;-74
2024/01/13 01:22:22;;;;;;;19.83;8.93;;;;;;;0.81;100.00;101668.50;5038067;28;20257;-74
2024/01/13 01:24:49;;;;;;;16.70;8.63;;;;;;;0.81;100.00;101666.72;5039467;28;20202;-73
2024/01/13 01:27:15;;;;;;;20.60;10.10;;;;;;;0.81;100.00;101661.50;5035336;28;20201;-74
2024/01/13 01:29:43;;;;;;;22.53;9.40;;;;;;;0.82;100.00;101663.06;5034027;28;20204;-73
2024/01/13 01:32:09;;;;;;;18.23;9.37;;;;;;;0.83;100.00;101663.88;5034589;28;20230;-73
2024/01/13 01:34:35;;;;;;;19.17;9.17;;;;;;;0.83;100.00;101656.09;5035102;28;20570;-73
2024/01/13 01:37:02;;;;;;;20.07;9.03;;;;;;;0.84;100.00;101650.63;5038860;28;21566;-73
2024/01/13 01:39:28;;;;;;;19.07;9.57;;;;;;;0.81;100.00;101645.91;5037004;28;20632;-74
2024/01/13 01:41:55;;;;;;;16.73;8.60;;;;;;;0.83;100.00;101643.09;5033942;28;20716;-74
2024/01/13 01:44:21;;;;;;;14.33;8.17;;;;;;;0.85;100.00;101641.03;5036433;28;20207;-74
2024/01/13 01:46:50;;;;;;;16.27;8.30;;;;;;;0.85;100.00;101641.03;5036265;28;20204;-74
2024/01/13 01:49:19;;;;;;;13.97;7.70;;;;;;;0.85;100.00;101635.81;5038188;28;20278;-74
2024/01/13 01:51:46;;;;;;;15.23;7.83;;;;;;;0.86;100.00;101638.19;5037310;28;20261;-74
2024/01/13 01:54:12;;;;;;;17.83;8.30;;;;;;;0.87;100.00;101633.75;5034369;28;20602;-74
2024/01/13 01:56:39;;;;;;;17.77;8.03;;;;;;;0.88;100.00;101627.56;5035781;28;20974;-73
2024/01/13 01:59:06;;;;;;;17.33;8.03;;;;;;;0.88;100.00;101627.56;5035375;28;20238;-74
2024/01/13 02:01:32;;;;;;;14.17;7.50;;;;;;;0.88;100.00;101622.38;5037378;28;20223;-73
2024/01/13 02:04:01;;;;;;;14.07;7.90;;;;;;;0.88;100.00;101622.38;5035049;28;20195;-73
2024/01/13 02:06:27;;;;;;;17.37;8.60;;;;;;;0.88;100.00;101617.94;5028891;28;20658;-74
2024/01/13 02:08:55;;;;;;;15.77;7.60;;;;;;;0.88;100.00;101617.16;5034549;28;20211;-73
2024/01/13 02:11:21;;;;;;;14.50;7.40;;;;;;;0.89;100.00;101623.94;5033993;28;20226;-74
2024/01/13 02:13:48;;;;;;;15.77;8.37;;;;;;;0.88;100.00;101612.72;5033526;28;20290;-73
2024/01/13 02:16:16;;;;;;;13.53;7.03;;;;;;;0.89;100.00;101603.13;5032268;28;20206;-74
2024/01/13 02:18:43;;;;;;;14.27;8.17;;;;;;;0.89;100.00;101606.50;5038621;28;20303;-73
2024/01/13 02:21:11;;;;;;;14.70;8.20;;;;;;;0.90;100.00;101604.72;5033486;28;20224;-73
2024/01/13 02:23:39;;;;;;;13.43;7.17;;;;;;;0.90;100.00;101599.50;5035624;28;20207;-74
2024/01/13 02:26:05;;;;;;;15.37;7.50;;;;;;;0.91;100.00;101595.88;5032936;28;20230;-74
2024/01/13 02:28:32;;;;;;;14.20;8.10;;;;;;;0.91;100.00;101595.88;5035723;28;20207;-73
2024/01/13 02:30:58;;;;;;;13.87;7.70;;;;;;;0.93;100.00;101599.00;5035390;28;20239;-73
2024/01/13 02:33:24;;;;;;;15.87;8.10;;;;;;;0.93;100.00;101599.81;5032831;28;20577;-74
2024/01/13 02:35:51;;;;;;;13.57;7.53;;;;;;;0.94;100.00;101590.97;5035092;28;20249;-74
2024/01/13 02:38:17;;;;;;;13.97;8.53;;;;;;;0.94;100.00;101593.59;5034183;28;20223;-73
2024/01/13 02:40:45;;;;;;;13.13;7.37;;;;;;;0.95;100.00;101589.19;5036772;28;20215;-73
2024/01/13 02:43:11;;;;;;;13.80;7.43;;;;;;;0.96;100.00;101583.75;5039195;28;20597;-73
2024/01/13 02:45:37;;;;;;;12.70;6.80;;;;;;;0.97;100.00;101579.31;5034888;28;20661;-73
2024/01/13 02:48:10;;;;;;;14.43;7.77;;;;;;;0.97;100.00;101574.91;5033184;28;20207;-73
2024/01/13 02:50:36;;;;;;;11.90;7.60;;;;;;;0.99;100.00;101579.88;5036124;28;20224;-73
2024/01/13 02:53:02;;;;;;;13.87;7.93;;;;;;;0.99;100.00;101566.88;5034074;28;20885;-74
2024/01/13 02:55:29;;;;;;;13.63;8.00;;;;;;;0.99;100.00;101564.28;5039752;28;20210;-74
2024/01/13 02:57:56;;;;;;;15.17;8.00;;;;;;;0.99;100.00;101567.66;5032588;28;20705;-74
2024/01/13 03:00:23;;;;;;;14.63;8.17;;;;;;;0.98;100.00;101558.28;5032752;28;20216;-73
2024/01/13 03:02:49;;;;;;;13.93;7.27;;;;;;;1.00;100.00;101561.44;5034461;28;20233;-74
2024/01/13 03:05:15;;;;;;;15.23;7.87;;;;;;;1.00;100.00;101558.06;5027126;28;20214;-74
2024/01/13 03:07:42;;;;;;;16.40;7.97;;;;;;;0.97;100.00;101561.91;5033690;28;20226;-74
2024/01/13 03:10:09;;;;;;;16.13;7.67;;;;;;;0.97;100.00;101555.91;5034337;28;20226;-73
2024/01/13 03:12:35;;;;;;;14.80;7.17;;;;;;;0.97;100.00;101561.91;5033841;28;20211;-73
2024/01/13 03:15:03;;;;;;;14.37;7.10;;;;;;;0.96;100.00;101556.94;5033678;28;20207;-73
2024/01/13 03:17:29;;;;;;;15.63;7.97;;;;;;;0.96;100.00;101544.75;5033836;28;20688;-73
2024/01/13 03:19:54;;;;;;;10.93;6.53;;;;;;;0.95;100.00;101544.97;5033024;28;20220;-73
2024/01/13 03:22:21;;;;;;;13.97;7.90;;;;;;;0.94;100.00;101543.41;5030449;28;20211;-74
2024/01/13 03:24:48;;;;;;;12.83;6.97;;;;;;;0.92;100.00;101533.25;5036461;28;20688;-74
2024/01/13 03:27:14;;;;;;;14.10;7.70;;;;;;;0.92;100.00;101537.66;5029178;28;20211;-73
2024/01/13 03:29:41;;;;;;;13.90;6.87;;;;;;;0.90;100.00;101532.69;5031327;28;20214;-73
2024/01/13 03:32:08;;;;;;;11.37;7.13;;;;;;;0.90;100.00;101530.06;5032394;28;20235;-74
2024/01/13 03:34:35;;;;;;;18.60;7.43;;;;;;;0.90;100.00;101522.28;5032727;28;20222;-73
2024/01/13 03:37:01;;;;;;;13.80;6.80;;;;;;;0.90;100.00;101529.31;5032767;28;20207;-74
2024/01/13 03:39:27;;;;;;;11.03;6.70;;;;;;;0.89;100.00;101520.72;5035042;28;20280;-74
2024/01/13 03:41:54;;;;;;;16.23;6.90;;;;;;;0.89;100.00;101518.09;5032586;28;20622;-73
2024/01/13 03:44:20;;;;;;;13.03;7.00;;;;;;;0.88;100.00;101524.34;5034283;28;20203;-74
2024/01/13 03:46:46;;;;;;;10.80;6.53;;;;;;;0.87;100.00;101517.56;5036466;28;20203;-73
2024/01/13 03:49:14;;;;;;;11.20;6.80;;;;;;;0.88;100.00;101523.56;5033946;28;20211;-73
2024/01/13 03:51:40;;;;;;;13.80;7.20;;;;;;;0.86;100.00;101518.59;5035418;28;20719;-74
2024/01/13 03:54:07;;;;;;;12.87;7.13;;;;;;;0.87;100.00;101514.97;5034783;28;20665;-73
2024/01/13 03:56:33;;;;;;;11.30;6.60;;;;;;;0.87;100.00;101516.78;5033488;28;20210;-73
2024/01/13 03:58:59;;;;;;;11.83;6.50;;;;;;;0.86;100.00;101507.41;5035711;28;20216;-73
2024/01/13 04:01:26;;;;;;;14.50;7.50;;;;;;;0.84;100.00;101494.63;5036965;28;20368;-74
2024/01/13 04:03:53;;;;;;;12.37;7.10;;;;;;;0.87;100.00;101501.19;5033887;28;20630;-73
2024/01/13 04:06:20;;;;;;;11.47;6.93;;;;;;;0.86;100.00;101487.41;5027442;28;20238;-74
2024/01/13 04:08:47;;;;;;;13.93;7.63;;;;;;;0.87;100.00;101490.78;5038736;28;20203;-73
2024/01/13 04:11:13;;;;;;;13.93;7.40;;;;;;;0.86;100.00;101481.41;5029658;28;20701;-74
2024/01/13 04:13:39;;;;;;;11.90;6.77;;;;;;;0.87;100.00;101475.19;5031222;28;20206;-73
2024/01/13 04:16:07;;;;;;;12.17;7.03;;;;;;;0.85;100.00;101459.84;5037420;28;20241;-74
2024/01/13 04:18:34;;;;;;;11.87;6.80;;;;;;;0.86;100.00;101464.00;5032886;28;20216;-73
2024/01/13 04:21:00;;;;;;;11.63;6.90;;;;;;;0.88;100.00;101467.16;5031569;28;20896;-74
2024/01/13 04:23:28;;;;;;;11.93;7.50;;;;;;;0.88;100.00;101471.56;5035941;28;20251;-73
2024/01/13 04:25:54;;;;;;;11.80;6.37;;;;;;;0.88;100.00;101466.38;5035561;28;20965;-73
2024/01/13 04:28:20;;;;;;;11.87;6.87;;;;;;;0.88;100.00;101464.53;5029454;28;20208;-74
2024/01/13 04:30:47;;;;;;;13.10;7.87;;;;;;;0.88;100.00;101463.78;5033273;28;20219;-73
2024/01/13 04:33:13;;;;;;;12.23;7.03;;;;;;;0.88;100.00;101468.97;5033027;28;20218;-73
2024/01/13 04:35:40;;;;;;;12.50;6.90;;;;;;;0.88;100.00;101467.16;5036097;28;20203;-74
2024/01/13 04:38:07;;;;;;;11.57;7.43;;;;;;;0.87;100.00;101462.97;5037121;28;20214;-74
2024/01/13 04:40:36;;;;;;;16.37;7.97;;;;;;;0.89;100.00;101470.53;5037683;28;20222;-73
2024/01/13 04:43:03;;;;;;;11.97;7.23;;;;;;;0.89;100.00;101463.50;5040330;28;20212;-73
2024/01/13 04:45:29;;;;;;;14.30;7.80;;;;;;;0.89;100.00;101453.13;5036407;28;20761;-73
2024/01/13 04:47:56;;;;;;;14.57;7.20;;;;;;;0.89;100.00;101447.91;5038531;28;20202;-74
2024/01/13 04:50:22;;;;;;;11.97;7.63;;;;;;;0.89;100.00;101447.91;5035886;28;20234;-73
2024/01/13 04:52:48;;;;;;;14.10;8.40;;;;;;;0.90;100.00;101449.47;5038228;28;20207;-73
2024/01/13 04:55:15;;;;;;;12.77;7.60;;;;;;;0.91;100.00;101452.88;5038199;28;20205;-73
2024/01/13 04:57:42;;;;;;;12.73;7.80;;;;;;;0.90;100.00;101443.50;5039246;28;20218;-74
2024/01/13 05:00:09;;;;;;;12.90;6.40;;;;;;;0.91;100.00;101450.28;5033489;28;20223;-73
2024/01/13 05:02:36;;;;;;;10.33;7.03;;;;;;;0.92;100.00;101447.44;5036309;28;20673;-73
2024/01/13 05:05:02;;;;;;;12.70;7.50;;;;;;;0.92;100.00;101446.66;5034946;28;20210;-74
2024/01/13 05:07:28;;;;;;;12.43;7.43;;;;;;;0.92;100.00;101444.84;5038613;28;20203;-73
2024/01/13 05:09:55;;;;;;;12.43;7.03;;;;;;;0.92;100.00;101437.03;5034421;28;20484;-73
2024/01/13 05:12:21;;;;;;;13.33;7.77;;;;;;;0.91;100.00;101445.09;5034311;28;20234;-73
2024/01/13 05:14:49;;;;;;;12.70;7.47;;;;;;;0.90;100.00;101444.28;5037540;28;20221;-73
2024/01/13 05:17:15;;;;;;;12.10;7.00;;;;;;;0.92;100.00;101442.25;5038931;28;20223;-74
2024/01/13 05:19:42;;;;;;;12.50;7.47;;;;;;;0.92;100.00;101442.25;5033172;28;20243;-74
2024/01/13 05:22:08;;;;;;;12.90;8.17;;;;;;;0.93;100.00;101433.41;5036985;28;20223;-74
2024/01/13 05:24:35;;;;;;;11.30;7.63;;;;;;;0.92;100.00;101429.25;5035379;28;20212;-73
2024/01/13 05:27:02;;;;;;;13.13;7.77;;;;;;;0.92;100.00;101429.25;5034323;28;20206;-73
2024/01/13 05:29:28;;;;;;;10.97;6.90;;;;;;;0.93;100.00;101417.00;5034028;28;20390;-74
2024/01/13 05:31:57;;;;;;;10.93;7.00;;;;;;;0.92;100.00;101421.44;5038879;28;20230;-73
2024/01/13 05:34:23;;;;;;;13.90;7.20;;;;;;;0.93;100.00;101419.63;5036469;28;20199;-73
2024/01/13 05:36:49;;;;;;;11.83;7.57;;;;;;;0.94;100.00;101423.81;5033986;28;20203;-73
2024/01/13 05:39:16;;;;;;;12.03;6.93;;;;;;;0.93;100.00;101423.00;5035093;28;20219;-73
2024/01/13 05:41:42;;;;;;;11.37;7.53;;;;;;;0.92;100.00;101416.25;5035114;28;20220;-74
2024/01/13 05:44:08;;;;;;;10.37;7.47;;;;;;;0.92;100.00;101421.44;5036104;28;20211;-74
2024/01/13 05:46:35;;;;;;;11.17;6.93;;;;;;;0.93;100.00;101417.00;5035668;28;20208;-74
2024/01/13 05:49:02;;;;;;;11.97;7.17;;;;;;;0.94;100.00;101414.19;5033877;28;20211;-73
2024/01/13 05:51:29;;;;;;;11.57;7.03;;;;;;;0.93;100.00;101410.00;5035883;28;20223;-74
2024/01/13 05:53:55;;;;;;;11.87;7.13;;;;;;;0.94;100.00;101405.63;5034285;28;20210;-74
2024/01/13 05:56:22;;;;;;;12.03;7.63;;;;;;;0.94;100.00;101405.63;5034311;28;20211;-73
2024/01/13 05:58:48;;;;;;;10.60;7.13;;;;;;;0.93;100.00;101406.63;5036408;28;20203;-73
2024/01/13 06:01:14;;;;;;;12.47;7.53;;;;;;;0.94;100.00;101413.41;5036555;28;20211;-73
2024/01/13 06:03:41;;;;;;;9.90;6.90;;;;;;;0.92;100.00;101411.03;5035251;28;20199;-74
2024/01/13 06:06:09;;;;;;;12.97;7.50;;;;;;;0.93;100.00;101410.00;5031046;28;20218;-73
2024/01/13 06:08:35;;;;;;;10.37;7.43;;;;;;;0.93;100.00;101406.63;5032786;28;20203;-73
2024/01/13 06:11:02;;;;;;;13.03;7.60;;;;;;;0.93;100.00;101407.41;5030013;28;20220;-73
2024/01/13 06:13:29;;;;;;;10.47;7.33;;;;;;;0.93;100.00;101419.63;5037156;28;20199;-74
2024/01/13 06:15:55;;;;;;;11.67;8.00;;;;;;;0.94;100.00;101408.22;5037415;28;20215;-74
2024/01/13 06:18:21;;;;;;;12.27;6.77;;;;;;;0.93;100.00;101412.63;5032789;28;20212;-74
2024/01/13 06:20:48;;;;;;;12.13;7.40;;;;;;;0.93;100.00;101404.00;5038616;28;20234;-74
2024/01/13 06:23:15;;;;;;;9.93;6.50;;;;;;;0.93;100.00;101407.41;5036542;28;20207;-73
2024/01/13 06:25:42;;;;;;;12.23;7.13;;;;;;;0.92;100.00;101398.03;5036209;28;20210;-74
2024/01/13 06:28:09;;;;;;;12.73;7.60;;;;;;;0.94;100.00;101401.19;5034490;28;20773;-73
2024/01/13 06:30:35;;;;;;;10.90;7.23;;;;;;;0.95;100.00;101396.78;5035453;28;20214;-74
2024/01/13 06:33:02;;;;;;;12.07;7.13;;;;;;;0.95;100.00;101394.19;5035195;28;20196;-74
2024/01/13 06:35:28;;;;;;;11.63;6.97;;;;;;;0.95;100.00;101392.34;5034848;28;20947;-74
2024/01/13 06:37:55;;;;;;;10.53;7.10;;;;;;;0.96;100.00;101380.94;5037153;28;20214;-73
2024/01/13 06:40:22;;;;;;;11.07;7.43;;;;;;;0.95;100.00;101389.75;5034879;28;20236;-73
2024/01/13 06:42:49;;;;;;;11.70;7.50;;;;;;;0.95;100.00;101378.56;5035954;28;20218;-73
2024/01/13 06:45:15;;;;;;;11.10;7.07;;;;;;;0.96;100.00;101383.53;5035309;28;20215;-73
2024/01/13 06:47:42;;;;;;;10.77;6.60;;;;;;;0.97;100.00;101366.91;5036592;28;20594;-73
2024/01/13 06:50:09;;;;;;;10.80;7.73;;;;;;;0.97;100.00;101372.09;5035072;28;20661;-74
2024/01/13 06:52:37;;;;;;;11.57;7.17;;;;;;;0.97;100.00;101366.09;5049998;28;20211;-73
2024/01/13 06:55:04;;;;;;;11.07;7.13;;;;;;;0.98;100.00;101365.06;5032889;28;20902;-74
2024/01/13 06:57:32;;;;;;;12.83;7.77;;;;;;;0.98;100.00;101365.88;5035625;28;20207;-73
2024/01/13 06:59:58;;;;;;;11.80;7.33;;;;;;;0.98;100.00;101365.88;5036696;28;20211;-73
2024/01/13 07:02:24;;;;;;;11.53;7.20;;;;;;;0.98;100.00;101358.06;5036615;28;20258;-73
2024/01/13 07:04:51;;;;;;;10.83;7.30;;;;;;;0.98;100.00;101365.88;5037631;28;20195;-73
2024/01/13 07:07:17;;;;;;;10.53;7.30;;;;;;;0.99;100.00;101361.47;5036280;28;20205;-73
2024/01/13 07:09:43;;;;;;;11.47;7.00;;;;;;;0.99;100.00;101362.25;5034196;28;21081;-73
2024/01/13 07:12:10;;;;;;;10.80;7.23;;;;;;;1.00;100.00;101361.19;5038098;28;20222;-73
2024/01/13 07:14:38;;;;;;;11.33;6.77;;;;;;;1.00;100.00;101353.41;5032745;28;20200;-73
2024/01/13 07:17:04;;;;;;;11.67;7.50;;;;;;;1.00;100.00;101350.81;5032135;28;20691;-73
2024/01/13 07:19:31;;;;;;;11.90;7.80;;;;;;;1.01;100.00;101344.59;5034002;28;20230;-74
2024/01/13 07:21:57;;;;;;;11.23;7.10;;;;;;;1.02;100.00;101343.56;5035392;28;20253;-74
2024/01/13 07:24:24;;;;;;;9.67;6.57;;;;;;;1.02;100.00;101338.38;5036433;28;20670;-74
2024/01/13 07:26:50;;;;;;;10.53;7.03;;;;;;;1.04;100.00;101340.72;5037081;28;20632;-73
2024/01/13 07:29:17;;;;;;;12.60;7.47;;;;;;;1.04;100.00;101340.72;5034338;28;21469;-74
2024/01/13 07:31:44;;;;;;;11.63;6.90;;;;;;;1.03;100.00;101334.72;5036205;28;20234;-73
2024/01/13 07:34:11;;;;;;;10.67;7.30;;;;;;;1.04;100.00;101338.13;5035280;28;20203;-74
2024/01/13 07:36:37;;;;;;;10.93;7.17;;;;;;;1.03;100.00;101329.53;5036434;28;20744;-74
2024/01/13 07:39:04;;;;;;;10.47;7.13;;;;;;;1.02;100.00;101333.16;5036636;28;20238;-73
2024/01/13 07:41:33;;;;;;;10.20;6.57;;;;;;;1.04;100.00;101325.13;5034895;28;21772;-74
2024/01/13 07:44:00;;;;;;;11.30;7.17;;;;;;;1.04;100.00;101330.31;5035289;28;20276;-74
2024/01/13 07:46:26;;;;;;;10.43;6.87;;;;;;;1.05;100.00;101324.09;5034581;28;20784;-74
2024/01/13 07:48:54;;;;;;;11.13;7.10;;;;;;;1.06;100.00;101328.25;5035648;28;20208;-73
2024/01/13 07:51:20;;;;;;;10.20;6.67;;;;;;;1.07;100.00;101322.81;5036015;28;20226;-73
2024/01/13 07:53:47;;;;;;;10.33;6.93;;;;;;;1.08;100.00;101324.38;5034423;28;20219;-73
2024/01/13 07:56:14;;;;;;;10.53;6.20;;;;;;;1.09;100.00;101314.78;5035262;28;20282;-74
2024/01/13 07:58:40;;;;;;;12.37;6.90;;;;;;;1.11;100.00;101317.91;5029617;28;20673;-73
2024/01/13 08:01:06;;;;;;;12.50;7.33;;;;;;;1.09;100.00;101307.75;5035272;28;20230;-73
2024/01/13 08:03:33;;;;;;;9.47;6.47;;;;;;;1.13;100.00;101297.63;5036347;28;20199;-73
2024/01/13 08:06:00;;;;;;;10.93;7.20;;;;;;;1.13;100.00;101308.81;5035433;28;20218;-72
2024/01/13 08:08:27;;;;;;;11.17;6.87;;;;;;;1.15;100.00;101303.38;5031833;28;20235;-73
2024/01/13 08:10:53;;;;;;;11.10;7.43;;;;;;;1.16;100.00;101297.16;5035253;28;20464;-73
2024/01/13 08:13:19;;;;;;;11.93;8.10;;;;;;;1.17;100.00;101296.13;5038031;28;20546;-72
2024/01/13 08:15:46;;;;;;;11.80;7.40;;;;;;;1.17;100.00;101290.91;5041749;28;20562;-73
2024/01/13 08:18:12;;;;;;;9.50;7.00;;;;;;;1.18;100.00;101290.66;5035430;28;20212;-73
2024/01/13 08:20:39;;;;;;;12.27;7.57;;;;;;;1.21;100.00;101284.97;5039548;28;20340;-73
2024/01/13 08:23:06;;;;;;;11.90;7.13;;;;;;;1.20;100.00;101283.41;5040176;28;20210;-73
2024/01/13 08:25:33;;;;;;;11.53;7.67;;;;;;;1.22;100.00;101276.16;5040796;28;20207;-73
2024/01/13 08:27:59;;;;;;;12.33;8.17;;;;;;;1.24;100.00;101262.88;5041315;28;20201;-74
2024/01/13 08:30:25;;;;;;;12.43;7.60;;;;;;;1.25;100.00;101269.66;5039869;28;20229;-73
2024/01/13 08:32:52;;;;;;;12.63;7.43;;;;;;;1.27;100.00;101262.38;5040173;28;20211;-73
2024/01/13 08:35:18;;;;;;;10.93;7.40;;;;;;;1.28;100.00;101262.16;5038306;28;20246;-73
2024/01/13 08:37:44;;;;;;;12.70;8.53;;;;;;;1.30;100.00;101265.28;5040397;28;20207;-73
2024/01/13 08:40:12;;;;;;;13.83;8.40;;;;;;;1.31;100.00;101263.47;5038959;28;20703;-72
2024/01/13 08:42:39;;;;;;;11.47;7.47;;;;;;;1.32;100.00;101268.44;5038601;28;20216;-73
2024/01/13 08:45:06;;;;;;;10.73;7.67;;;;;;;1.34;100.00;101265.56;5038997;28;20211;-74
2024/01/13 08:47:32;;;;;;;12.80;8.20;;;;;;;1.37;100.00;101267.69;5041329;28;20681;-74
2024/01/13 08:49:59;;;;;;;11.93;7.90;;;;;;;1.38;100.00;101269.25;5041514;28;20568;-73
2024/01/13 08:52:25;;;;;;;13.40;8.53;;;;;;;1.40;100.00;101267.19;5037920;28;21360;-73
2024/01/13 08:54:51;;;;;;;11.23;7.40;;;;;;;1.41;100.00;101264.31;5038284;28;20677;-72
2024/01/13 08:57:19;;;;;;;12.07;7.73;;;;;;;1.43;100.00;101256.28;5040938;28;20211;-72
2024/01/13 08:59:45;;;;;;;15.50;8.73;;;;;;;1.45;100.00;101262.03;5040318;28;20222;-72
2024/01/13 09:02:12;;;;;;;13.97;8.47;;;;;;;1.46;100.00;101258.41;5039932;28;20222;-73
2024/01/13 09:04:38;;;;;;;13.73;8.70;;;;;;;1.46;100.00;101259.16;5038434;28;20208;-72
2024/01/13 09:07:04;;;;;;;13.07;8.47;;;;;;;1.47;100.00;101260.75;5044063;28;20211;-72
2024/01/13 09:09:31;;;;;;;10.40;7.63;;;;;;;1.49;100.00;101256.06;5039306;28;20620;-72
2024/01/13 09:11:57;;;;;;;10.33;6.87;;;;;;;1.53;100.00;101256.34;5040600;28;20231;-73
2024/01/13 09:14:25;;;;;;;10.23;6.23;;;;;;;1.53;100.00;101251.94;5039778;28;20206;-73
2024/01/13 09:16:51;;;;;;;11.17;7.63;;;;;;;1.56;100.00;101259.25;5039846;28;20203;-73
2024/01/13 09:19:17;;;;;;;11.30;7.90;;;;;;;1.55;100.00;101252.47;5039247;28;20215;-72
2024/01/13 09:21:43;;;;;;;11.17;8.17;;;;;;;1.56;100.00;101250.66;5041004;28;20836;-72
2024/01/13 09:24:10;;;;;;;11.07;6.73;;;;;;;1.58;100.00;101251.19;5039613;28;20209;-72
2024/01/13 09:26:40;;;;;;;14.80;9.57;;;;;;;1.56;100.00;101242.84;5039442;28;20211;-72
2024/01/13 09:29:06;;;;;;;13.60;8.97;;;;;;;1.56;100.00;101241.03;5037223;28;20207;-73
2024/01/13 09:31:34;;;;;;;17.30;10.93;;;;;;;1.58;100.00;101243.38;5036616;28;20302;-73
2024/01/13 09:34:00;;;;;;;15.97;9.47;;;;;;;1.61;100.00;101250.69;5035130;28;20222;-73
2024/01/13 09:36:26;;;;;;;19.13;10.10;;;;;;;1.62;100.00;101253.03;5039651;28;20725;-72
2024/01/13 09:38:53;;;;;;;13.53;8.43;;;;;;;1.64;100.00;101247.59;5033904;28;20207;-72
2024/01/13 09:41:19;;;;;;;17.97;10.80;;;;;;;1.65;100.00;101251.75;5036218;28;20231;-73
2024/01/13 09:43:55;;;;;;;13.07;7.73;;;;;;;1.66;100.00;101248.91;5037200;28;20221;-73
2024/01/13 09:46:22;;;;;;;10.93;6.87;;;;;;;1.67;100.00;101245.25;5038431;28;20596;-73
2024/01/13 09:48:51;;;;;;;9.77;6.97;;;;;;;1.67;100.00;101236.69;5035018;28;20209;-74
2024/01/13 09:51:18;;;;;;;11.33;6.97;;;;;;;1.69;100.00;101226.78;5035632;28;20222;-73
2024/01/13 09:53:55;;;;;;;11.80;7.70;;;;;;;1.70;100.00;101229.16;5036264;28;20199;-72
2024/01/13 09:56:29;;;;;;;12.40;7.63;;;;;;;1.72;100.00;101215.91;5034853;28;20211;-73
2024/01/13 09:58:56;;;;;;;9.63;6.83;;;;;;;1.73;100.00;101212.25;5035140;28;20207;-72
2024/01/13 10:01:23;;;;;;;10.90;6.83;;;;;;;1.74;100.00;101219.81;5036628;28;20233;-72
2024/01/13 10:03:51;;;;;;;11.30;7.00;;;;;;;1.73;100.00;101212.25;5032974;28;20234;-72
2024/01/13 10:06:18;;;;;;;10.50;6.50;;;;;;;1.74;100.00;101208.59;5037472;28;20222;-72
2024/01/13 10:08:46;;;;;;;13.27;8.23;;;;;;;1.74;100.00;101200.78;5033752;28;20214;-71
2024/01/13 10:11:12;;;;;;;10.80;6.67;;;;;;;1.74;100.00;101185.16;5036600;28;20223;-73
2024/01/13 10:13:39;;;;;;;11.87;7.47;;;;;;;1.76;100.00;101183.88;5034600;28;20282;-72
2024/01/13 10:16:05;;;;;;;11.63;7.87;;;;;;;1.78;100.00;101174.03;5035568;28;20268;-72
2024/01/13 10:18:32;;;;;;;10.40;6.90;;;;;;;1.81;100.00;101170.09;5032040;28;20215;-73
2024/01/13 10:21:00;;;;;;;10.17;6.33;;;;;;;1.81;100.00;101167.50;5034552;28;21336;-72
2024/01/13 10:23:26;;;;;;;11.30;7.03;;;;;;;1.85;100.00;101182.38;5036441;28;20204;-72
2024/01/13 10:25:53;;;;;;;8.77;5.90;;;;;;;1.89;100.00;101182.66;5031757;28;20254;-72
2024/01/13 10:28:23;;;;;;;10.97;7.10;;;;;;;1.94;100.00;101180.88;5035886;28;20662;-71
2024/01/13 10:30:50;;;;;;;10.10;6.57;;;;;;;2.00;100.00;101181.66;5034543;28;20223;-73
2024/01/13 10:33:16;;;;;;;9.00;5.50;;;;;;;2.05;100.00;101163.44;5036177;28;20218;-73
2024/01/13 10:35:42;;;;;;;10.50;6.00;;;;;;;2.11;100.00;101152.00;5037476;28;20273;-73
2024/01/13 10:38:11;;;;;;;8.43;5.57;;;;;;;2.13;100.00;101158.53;5051978;28;20218;-73
2024/01/13 10:40:39;;;;;;;7.87;5.10;;;;;;;2.14;100.00;101157.47;5033313;28;20220;-73
2024/01/13 10:43:07;;;;;;;8.37;4.87;;;;;;;2.14;100.00;101152.28;5038743;28;20718;-72
2024/01/13 10:45:37;;;;;;;6.63;4.57;;;;;;;2.14;100.00;101148.91;5035557;28;20204;-73
2024/01/13 10:48:07;;;;;;;6.97;4.90;;;;;;;2.15;100.00;101142.66;5033173;28;20943;-72
2024/01/13 10:50:36;;;;;;;7.80;4.80;;;;;;;2.10;100.00;101145.22;5036569;28;20300;-72
2024/01/13 10:53:21;;;;;;;11.13;5.67;;;;;;;2.09;100.00;101141.06;5033948;28;20199;-73
2024/01/13 10:55:49;;;;;;;6.33;4.17;;;;;;;2.12;100.00;101122.31;5035932;28;20200;-72
2024/01/13 10:58:17;;;;;;;6.97;4.67;;;;;;;2.06;100.00;101126.75;5031115;28;20207;-72
2024/01/13 11:00:44;;;;;;;7.17;5.13;;;;;;;2.09;100.00;101134.06;5034802;28;20590;-73
2024/01/13 11:03:14;;;;;;;8.47;5.33;;;;;;;2.14;100.00;101120.25;5036016;28;20203;-72
2024/01/13 11:05:41;;;;;;;8.63;6.10;;;;;;;2.18;100.00;101124.69;5034484;28;20731;-72
2024/01/13 11:08:07;;;;;;;7.97;5.47;;;;;;;2.20;100.00;101114.00;5034728;28;20593;-73
2024/01/13 11:10:41;;;;;;;9.50;5.90;;;;;;;2.24;100.00;101115.84;5031079;28;20230;-72
2024/01/13 11:13:15;;;;;;;8.13;5.37;;;;;;;2.26;100.00;101113.78;5031554;28;20272;-72
2024/01/13 11:15:44;;;;;;;13.57;8.33;;;;;;;2.32;100.00;101117.94;5034553;28;20203;-72